Time;durP1;ratioP1;P1;durP2;ratioP2;P2;SDS_P1;SDS_P2;PMS_P1;PMS_P2;Temp;Humidity;BMP_temperature;BMP_pressure;BME280_temperature;BME280_humidity;BME280_pressure;Samples;Min_cycle;Max_cycle;Signal;HPM_P1;HPM_P2
2020/12/14 00:02:01;;;;;;;9.52;4.53;;;6.90;85.80;;;;;;5022325;28;20034;-52
2020/12/14 00:04:47;;;;;;;13.25;5.43;;;6.90;86.50;;;;;;4996854;28;20053;-55
2020/12/14 00:07:33;;;;;;;14.43;6.05;;;6.90;87.70;;;;;;4987221;28;20042;-53
2020/12/14 00:10:18;;;;;;;10.15;4.85;;;6.70;88.90;;;;;;4998111;28;20038;-52
2020/12/14 00:13:04;;;;;;;12.45;5.20;;;6.70;89.90;;;;;;5003615;28;20108;-52
2020/12/14 00:15:50;;;;;;;12.85;5.03;;;6.70;90.00;;;;;;5003486;28;20492;-50
2020/12/14 00:18:36;;;;;;;17.55;5.30;;;6.60;90.00;;;;;;4989320;28;20121;-51
2020/12/14 00:21:22;;;;;;;9.68;4.90;;;6.60;90.10;;;;;;5002276;28;20042;-52
2020/12/14 00:23:51;;;;;;;11.38;4.82;;;6.60;90.40;;;;;;4992599;28;20049;-54
2020/12/14 00:26:36;;;;;;;13.57;5.32;;;6.50;90.60;;;;;;4995788;28;20041;-52
2020/12/14 00:29:22;;;;;;;13.52;5.60;;;6.50;90.80;;;;;;4997192;28;20053;-54
2020/12/14 00:31:53;;;;;;;12.27;5.30;;;6.50;91.10;;;;;;5010832;28;20084;-54
2020/12/14 00:34:19;;;;;;;12.93;5.10;;;6.40;91.10;;;;;;5016072;28;20049;-54
2020/12/14 00:37:07;;;;;;;11.63;5.45;;;6.40;91.20;;;;;;5008470;28;20049;-54
2020/12/14 00:39:32;;;;;;;10.50;5.40;;;6.40;91.20;;;;;;5016439;28;20037;-53
2020/12/14 00:42:18;;;;;;;13.68;5.00;;;6.40;91.30;;;;;;5007922;28;20348;-54
2020/12/14 00:44:43;;;;;;;16.50;5.55;;;6.40;91.30;;;;;;5014972;28;20125;-54
2020/12/14 00:47:11;;;;;;;15.23;5.18;;;6.40;91.20;;;;;;5011988;28;20052;-54
2020/12/14 00:49:37;;;;;;;13.15;5.53;;;6.50;91.20;;;;;;5013151;28;20179;-55
2020/12/14 00:52:04;;;;;;;10.23;4.72;;;6.40;91.30;;;;;;5015170;28;20124;-54
2020/12/14 00:54:33;;;;;;;11.05;5.57;;;6.40;91.20;;;;;;5021161;28;20037;-55
2020/12/14 00:57:19;;;;;;;14.82;4.90;;;6.40;91.60;;;;;;4996617;28;20056;-50
2020/12/14 00:59:45;;;;;;;13.65;4.97;;;6.50;91.10;;;;;;5023934;28;20050;-54
2020/12/14 01:02:31;;;;;;;11.65;5.20;;;6.40;91.20;;;;;;5009146;28;20049;-53
2020/12/14 01:04:56;;;;;;;11.65;4.90;;;6.50;91.20;;;;;;5014931;28;20116;-54
2020/12/14 01:07:22;;;;;;;13.23;5.28;;;6.50;91.00;;;;;;5021720;28;20125;-53
2020/12/14 01:10:09;;;;;;;12.55;5.30;;;6.40;91.10;;;;;;5016909;28;20495;-51
2020/12/14 01:12:36;;;;;;;14.23;5.07;;;6.50;91.10;;;;;;5025671;28;20052;-52
2020/12/14 01:15:04;;;;;;;12.48;5.60;;;6.50;90.90;;;;;;5031688;28;20453;-54
2020/12/14 01:17:30;;;;;;;10.52;5.35;;;6.40;91.10;;;;;;5020547;28;20045;-52
2020/12/14 01:19:56;;;;;;;9.85;5.25;;;6.40;91.30;;;;;;5023459;28;20039;-52
2020/12/14 01:22:21;;;;;;;10.48;5.38;;;6.50;90.80;;;;;;5024756;28;20065;-55
2020/12/14 01:24:47;;;;;;;11.07;5.18;;;6.60;90.80;;;;;;5028707;28;20475;-55
2020/12/14 01:27:13;;;;;;;11.57;4.90;;;6.50;90.90;;;;;;5022410;28;20045;-52
2020/12/14 01:29:39;;;;;;;13.70;5.63;;;6.60;90.70;;;;;;5021539;28;20037;-54
2020/12/14 01:32:05;;;;;;;12.63;5.32;;;6.60;90.70;;;;;;5031875;28;20125;-54
2020/12/14 01:34:30;;;;;;;9.00;4.90;;;6.60;90.50;;;;;;5015841;28;20430;-54
2020/12/14 01:36:57;;;;;;;11.13;4.78;;;6.70;90.30;;;;;;5021001;28;20318;-53
2020/12/14 01:39:23;;;;;;;12.05;5.30;;;6.70;90.40;;;;;;4992018;28;20056;-54
2020/12/14 01:42:09;;;;;;;13.15;5.18;;;6.70;90.20;;;;;;5006431;28;20425;-53
2020/12/14 01:44:34;;;;;;;11.35;5.03;;;6.70;90.50;;;;;;5020386;28;20037;-51
2020/12/14 01:47:02;;;;;;;14.15;5.15;;;6.70;90.20;;;;;;4996768;28;20103;-55
2020/12/14 01:49:29;;;;;;;12.77;5.22;;;6.70;90.20;;;;;;5006455;28;20045;-54
2020/12/14 01:51:56;;;;;;;11.30;5.35;;;6.80;89.80;;;;;;5021635;28;20033;-54
2020/12/14 01:54:35;;;;;;;12.25;5.10;;;6.80;89.40;;;;;;5027926;28;20086;-53
2020/12/14 01:57:01;;;;;;;11.55;6.10;;;6.80;90.00;;;;;;5032871;28;20045;-51
2020/12/14 01:59:47;;;;;;;9.95;4.90;;;6.80;89.80;;;;;;4999367;28;20045;-54
2020/12/14 02:02:13;;;;;;;11.70;5.07;;;6.80;89.50;;;;;;5029429;28;20040;-54
2020/12/14 02:05:01;;;;;;;9.35;4.97;;;6.80;90.00;;;;;;5001263;28;20128;-54
2020/12/14 02:07:27;;;;;;;11.65;5.38;;;6.80;89.50;;;;;;5031154;28;20119;-54
2020/12/14 02:09:54;;;;;;;12.48;5.07;;;6.80;89.60;;;;;;5024022;28;20038;-54
2020/12/14 02:12:40;;;;;;;11.65;5.43;;;6.80;89.80;;;;;;5005592;28;20517;-53
2020/12/14 02:15:07;;;;;;;13.85;5.47;;;6.80;89.80;;;;;;5031041;28;20075;-52
2020/12/14 02:17:33;;;;;;;14.95;5.57;;;6.90;88.70;;;;;;5019861;28;20041;-52
2020/12/14 02:20:19;;;;;;;11.80;5.55;;;6.90;88.80;;;;;;5008206;28;20501;-55
2020/12/14 02:22:45;;;;;;;11.32;4.75;;;6.90;88.90;;;;;;5018580;28;20408;-55
2020/12/14 02:25:10;;;;;;;9.90;5.20;;;6.90;89.10;;;;;;5018979;28;20049;-54
2020/12/14 02:27:37;;;;;;;11.75;5.05;;;7.00;88.70;;;;;;5015481;28;20414;-52
2020/12/14 02:30:05;;;;;;;13.40;4.93;;;7.00;88.20;;;;;;5022068;28;20048;-54
2020/12/14 02:32:31;;;;;;;13.75;5.10;;;6.90;88.50;;;;;;5017680;28;20081;-54
2020/12/14 02:34:57;;;;;;;12.55;5.15;;;7.00;88.00;;;;;;5013240;28;20499;-53
2020/12/14 02:37:43;;;;;;;12.40;5.05;;;6.90;88.10;;;;;;5000285;28;20645;-54
2020/12/14 02:40:09;;;;;;;13.02;5.47;;;6.90;88.10;;;;;;5031550;28;20103;-53
2020/12/14 02:42:35;;;;;;;9.45;4.70;;;6.90;88.30;;;;;;5017237;28;20034;-53
2020/12/14 02:45:00;;;;;;;13.52;5.68;;;6.90;88.20;;;;;;5019257;28;20034;-54
2020/12/14 02:47:46;;;;;;;13.63;5.32;;;6.90;88.40;;;;;;5015385;28;20087;-51
2020/12/14 02:50:35;;;;;;;12.57;4.97;;;6.90;88.40;;;;;;5000043;28;20510;-54
2020/12/14 02:53:02;;;;;;;15.43;5.10;;;6.90;88.50;;;;;;5008000;28;20107;-54
2020/12/14 02:55:28;;;;;;;12.10;4.82;;;6.90;87.80;;;;;;5031527;28;20559;-53
2020/12/14 02:57:54;;;;;;;13.70;5.10;;;7.10;87.30;;;;;;5031372;28;20038;-55
2020/12/14 03:00:39;;;;;;;12.07;5.80;;;7.10;87.10;;;;;;5009752;28;20080;-53
2020/12/14 03:03:05;;;;;;;12.23;5.57;;;7.00;87.70;;;;;;5028974;28;20430;-50
2020/12/14 03:05:51;;;;;;;15.57;5.60;;;7.00;87.70;;;;;;5006015;28;20041;-51
2020/12/14 03:08:36;;;;;;;12.13;4.95;;;7.00;88.40;;;;;;5004009;28;20096;-51
2020/12/14 03:11:22;;;;;;;12.63;5.22;;;7.00;88.50;;;;;;5006009;28;20423;-54
2020/12/14 03:13:48;;;;;;;13.43;5.20;;;7.00;88.50;;;;;;5013075;28;20037;-53
2020/12/14 03:16:14;;;;;;;12.68;5.22;;;7.00;88.90;;;;;;5012934;28;20037;-54
2020/12/14 03:18:39;;;;;;;11.23;5.35;;;7.00;89.30;;;;;;5026541;28;20100;-54
2020/12/14 03:21:07;;;;;;;11.48;5.82;;;7.10;88.70;;;;;;5017813;28;20045;-50
2020/12/14 03:23:53;;;;;;;12.13;5.20;;;7.00;88.50;;;;;;5003017;28;20041;-52
2020/12/14 03:26:39;;;;;;;10.05;5.20;;;7.00;88.80;;;;;;5005840;28;20041;-53
2020/12/14 03:29:05;;;;;;;10.48;5.22;;;7.00;88.80;;;;;;5027868;28;20124;-52
2020/12/14 03:31:32;;;;;;;11.05;4.53;;;7.00;88.70;;;;;;5013396;28;20049;-51
2020/12/14 03:33:58;;;;;;;13.13;5.20;;;7.10;88.80;;;;;;5013679;28;20101;-53
2020/12/14 03:36:43;;;;;;;14.68;5.40;;;7.10;88.50;;;;;;5005486;28;20045;-54
2020/12/14 03:39:09;;;;;;;11.75;5.68;;;7.10;88.50;;;;;;5027891;28;20041;-55
2020/12/14 03:41:35;;;;;;;15.30;5.50;;;7.10;88.20;;;;;;5029339;28;20045;-54
2020/12/14 03:44:00;;;;;;;14.93;5.20;;;7.20;87.90;;;;;;5029499;28;20121;-55
2020/12/14 03:46:27;;;;;;;10.13;4.35;;;7.20;87.60;;;;;;5020436;28;20069;-54
2020/12/14 03:48:54;;;;;;;9.50;5.05;;;7.20;87.50;;;;;;5020119;28;20045;-51
2020/12/14 03:51:21;;;;;;;11.85;5.03;;;7.20;87.40;;;;;;5015095;28;20084;-54
2020/12/14 03:54:07;;;;;;;10.80;4.85;;;7.30;87.10;;;;;;5014137;28;20091;-51
2020/12/14 03:56:56;;;;;;;15.15;5.25;;;7.30;87.00;;;;;;5010998;28;20037;-54
2020/12/14 03:59:22;;;;;;;12.90;4.93;;;7.30;86.70;;;;;;5024058;28;20413;-53
2020/12/14 04:01:48;;;;;;;10.35;4.88;;;7.30;86.70;;;;;;5012440;28;20044;-52
2020/12/14 04:04:13;;;;;;;16.40;5.10;;;7.30;86.90;;;;;;5018014;28;20041;-53
2020/12/14 04:06:39;;;;;;;9.88;4.68;;;7.30;86.90;;;;;;5021989;28;20092;-55
2020/12/14 04:09:25;;;;;;;9.77;5.05;;;7.40;86.20;;;;;;4997617;28;20049;-55
2020/12/14 04:11:51;;;;;;;12.32;4.78;;;7.40;86.40;;;;;;5020611;28;20033;-55
2020/12/14 04:14:37;;;;;;;11.13;4.90;;;7.40;86.90;;;;;;5004101;28;20046;-55
2020/12/14 04:17:03;;;;;;;10.70;4.93;;;7.40;86.60;;;;;;5021019;28;20061;-54
2020/12/14 04:19:29;;;;;;;12.25;5.43;;;7.50;86.80;;;;;;5017507;28;20041;-54
2020/12/14 04:21:55;;;;;;;14.13;4.78;;;7.40;87.10;;;;;;5018963;28;20077;-53
2020/12/14 04:24:20;;;;;;;9.63;4.57;;;7.40;87.60;;;;;;5016667;28;20561;-55
2020/12/14 04:26:54;;;;;;;9.40;5.22;;;7.40;87.80;;;;;;5018878;28;20388;-54
2020/12/14 04:29:21;;;;;;;11.35;4.63;;;7.30;88.20;;;;;;5016579;28;20045;-55
2020/12/14 04:32:06;;;;;;;13.45;5.05;;;7.30;88.50;;;;;;5013673;28;20503;-54
2020/12/14 04:34:52;;;;;;;11.75;5.32;;;7.30;89.00;;;;;;5001804;28;20045;-53
2020/12/14 04:37:37;;;;;;;8.90;4.60;;;7.30;88.90;;;;;;4999579;28;20445;-54
2020/12/14 04:40:04;;;;;;;11.45;4.72;;;7.30;89.30;;;;;;5011938;28;20037;-53
2020/12/14 04:42:51;;;;;;;11.43;5.15;;;7.40;89.30;;;;;;5001310;28;20067;-53
2020/12/14 04:45:17;;;;;;;9.35;4.53;;;7.40;89.30;;;;;;5019320;28;20041;-54
2020/12/14 04:47:43;;;;;;;11.48;4.88;;;7.40;89.40;;;;;;5014979;28;20042;-51
2020/12/14 04:50:29;;;;;;;9.38;4.63;;;7.40;89.70;;;;;;5003433;28;20045;-51
2020/12/14 04:53:16;;;;;;;14.18;5.05;;;7.40;89.80;;;;;;5009757;28;20458;-51
2020/12/14 04:55:42;;;;;;;10.93;5.05;;;7.40;89.70;;;;;;5020163;28;20335;-54
2020/12/14 04:58:08;;;;;;;10.23;5.03;;;7.40;89.90;;;;;;5018100;28;20046;-51
2020/12/14 05:00:53;;;;;;;8.18;4.22;;;7.40;90.00;;;;;;5008526;28;20107;-52
2020/12/14 05:03:19;;;;;;;11.73;4.68;;;7.40;90.00;;;;;;5013525;28;20042;-51
2020/12/14 05:05:53;;;;;;;10.75;5.25;;;7.40;90.00;;;;;;5030075;28;20041;-52
2020/12/14 05:08:31;;;;;;;10.35;4.78;;;7.40;90.00;;;;;;5019602;28;20442;-52
2020/12/14 05:10:57;;;;;;;13.07;4.63;;;7.50;89.80;;;;;;5029106;28;20041;-52
2020/12/14 05:13:27;;;;;;;8.65;4.53;;;7.50;89.80;;;;;;5021283;28;20096;-54
2020/12/14 05:15:53;;;;;;;10.13;4.90;;;7.40;90.00;;;;;;5011141;28;20041;-55
2020/12/14 05:18:24;;;;;;;10.10;5.22;;;7.50;90.00;;;;;;5018326;28;20077;-51
2020/12/14 05:20:57;;;;;;;13.70;4.95;;;7.50;90.00;;;;;;5017484;28;20299;-51
2020/12/14 05:23:23;;;;;;;12.27;5.18;;;7.40;90.20;;;;;;5015825;28;20410;-51
2020/12/14 05:25:49;;;;;;;11.18;5.20;;;7.50;90.20;;;;;;5012715;28;20034;-52
2020/12/14 05:28:19;;;;;;;10.82;5.47;;;7.50;90.30;;;;;;5025887;28;20057;-55
2020/12/14 05:31:05;;;;;;;11.27;5.60;;;7.40;90.40;;;;;;5001517;28;20453;-54
2020/12/14 05:33:32;;;;;;;8.80;5.30;;;7.50;90.50;;;;;;5015936;28;20026;-55
2020/12/14 05:35:57;;;;;;;11.02;6.15;;;7.50;91.10;;;;;;5012836;28;20037;-54
2020/12/14 05:38:43;;;;;;;11.55;5.60;;;7.40;91.00;;;;;;4996648;28;20046;-56
2020/12/14 05:41:09;;;;;;;11.98;6.72;;;7.40;91.50;;;;;;5010708;28;20533;-56
2020/12/14 05:43:57;;;;;;;11.88;6.72;;;7.30;91.70;;;;;;5003703;28;20050;-56
2020/12/14 05:46:43;;;;;;;11.75;6.65;;;7.30;92.10;;;;;;4998426;28;20038;-55
2020/12/14 05:49:09;;;;;;;11.32;6.30;;;7.30;92.30;;;;;;5019268;28;20118;-54
2020/12/14 05:51:38;;;;;;;13.73;7.25;;;7.20;92.40;;;;;;5016127;28;20041;-53
2020/12/14 05:54:11;;;;;;;12.50;7.00;;;7.20;92.70;;;;;;5031926;28;20041;-53
2020/12/14 05:56:37;;;;;;;15.18;7.65;;;7.10;92.80;;;;;;5021383;28;20042;-54
2020/12/14 05:59:23;;;;;;;15.55;8.40;;;7.10;93.00;;;;;;5003396;28;20123;-54
2020/12/14 06:01:49;;;;;;;15.85;8.20;;;7.10;92.90;;;;;;5015049;28;20038;-56
2020/12/14 06:04:16;;;;;;;16.45;7.97;;;7.10;93.10;;;;;;5014769;28;20056;-57
2020/12/14 06:06:46;;;;;;;15.60;8.38;;;7.20;93.20;;;;;;5021081;28;20494;-57
2020/12/14 06:09:20;;;;;;;13.88;8.55;;;7.10;93.10;;;;;;5016445;28;20049;-57
2020/12/14 06:11:52;;;;;;;12.13;8.70;;;7.10;93.20;;;;;;5016886;28;20095;-57
2020/12/14 06:14:39;;;;;;;14.60;8.73;;;7.10;93.20;;;;;;5006058;28;20132;-57
2020/12/14 06:17:10;;;;;;;14.50;8.65;;;7.00;93.30;;;;;;5012928;28;20046;-58
2020/12/14 06:19:38;;;;;;;15.95;8.82;;;7.10;93.30;;;;;;5014996;28;20100;-57
2020/12/14 06:22:09;;;;;;;18.88;8.82;;;7.20;93.10;;;;;;5016970;28;20111;-57
2020/12/14 06:24:59;;;;;;;16.30;9.07;;;7.10;93.20;;;;;;5009784;28;20038;-57
2020/12/14 06:27:45;;;;;;;16.80;9.45;;;7.10;93.30;;;;;;5011373;28;20037;-56
2020/12/14 06:30:31;;;;;;;15.98;9.95;;;7.10;93.40;;;;;;5014102;28;20050;-56
2020/12/14 06:33:01;;;;;;;17.83;9.75;;;7.10;93.40;;;;;;5022780;28;20124;-55
2020/12/14 06:35:49;;;;;;;15.75;9.82;;;7.10;93.50;;;;;;5022664;28;20099;-56
2020/12/14 06:38:37;;;;;;;18.27;9.80;;;7.00;93.50;;;;;;5016007;28;20054;-55
2020/12/14 06:41:14;;;;;;;14.73;10.35;;;7.10;93.70;;;;;;5025091;28;20046;-57
2020/12/14 06:43:41;;;;;;;17.08;10.25;;;7.10;93.70;;;;;;5015013;28;20053;-57
2020/12/14 06:46:07;;;;;;;19.67;10.30;;;7.10;93.80;;;;;;5018087;28;20045;-57
2020/12/14 06:48:45;;;;;;;17.60;10.73;;;7.10;93.80;;;;;;5013958;28;20045;-53
2020/12/14 06:51:15;;;;;;;15.13;10.05;;;7.10;93.80;;;;;;5019194;28;20034;-54
2020/12/14 06:53:42;;;;;;;16.05;10.52;;;7.10;93.80;;;;;;5016696;28;20048;-56
2020/12/14 06:56:09;;;;;;;18.80;11.20;;;7.20;93.80;;;;;;5014646;28;20063;-56
2020/12/14 06:58:41;;;;;;;16.45;10.43;;;7.20;93.90;;;;;;5021768;28;20037;-57
2020/12/14 07:01:33;;;;;;;15.48;10.48;;;7.20;94.00;;;;;;5022075;28;20046;-54
2020/12/14 07:04:06;;;;;;;14.77;10.32;;;7.20;93.80;;;;;;5018218;28;20079;-56
2020/12/14 07:06:32;;;;;;;18.80;10.82;;;7.20;93.90;;;;;;5026039;28;20083;-53
2020/12/14 07:08:58;;;;;;;16.65;10.68;;;7.20;94.20;;;;;;5017290;28;20064;-53
2020/12/14 07:11:25;;;;;;;20.58;11.27;;;7.20;94.00;;;;;;5005652;28;20056;-56
2020/12/14 07:14:30;;;;;;;16.50;9.82;;;7.30;94.10;;;;;;5010828;28;20050;-56
2020/12/14 07:16:57;;;;;;;17.08;9.77;;;7.30;94.10;;;;;;5015750;28;20045;-56
2020/12/14 07:19:35;;;;;;;15.32;11.07;;;7.30;94.20;;;;;;5014094;28;20442;-56
2020/12/14 07:22:02;;;;;;;14.95;9.90;;;7.30;94.10;;;;;;5026054;28;20049;-54
2020/12/14 07:24:34;;;;;;;14.98;10.70;;;7.30;94.20;;;;;;4986551;28;20044;-56
2020/12/14 07:27:00;;;;;;;16.08;10.10;;;7.30;94.20;;;;;;5013591;28;20120;-56
2020/12/14 07:29:46;;;;;;;16.70;9.65;;;7.40;94.10;;;;;;5006560;28;20052;-56
2020/12/14 07:32:32;;;;;;;16.38;9.30;;;7.50;94.10;;;;;;5009145;28;20049;-54
2020/12/14 07:34:58;;;;;;;16.35;9.70;;;7.50;94.10;;;;;;5004536;28;20042;-56
2020/12/14 07:37:25;;;;;;;15.07;9.13;;;7.50;94.00;;;;;;5020997;28;20490;-56
2020/12/14 07:39:51;;;;;;;15.63;9.10;;;7.50;94.00;;;;;;5020433;28;20041;-55
2020/12/14 07:42:32;;;;;;;18.25;8.60;;;7.60;94.00;;;;;;5022304;28;20045;-55
2020/12/14 07:45:18;;;;;;;14.63;8.75;;;7.60;93.80;;;;;;4997571;28;20045;-55
2020/12/14 07:47:46;;;;;;;13.18;8.27;;;7.70;93.80;;;;;;5027568;28;20037;-56
2020/12/14 07:50:31;;;;;;;13.93;8.20;;;7.70;93.80;;;;;;5014240;28;20053;-53
2020/12/14 07:52:57;;;;;;;14.35;9.18;;;7.60;93.90;;;;;;5012531;28;20045;-55
2020/12/14 07:55:42;;;;;;;14.70;9.48;;;7.60;93.90;;;;;;5012695;28;20045;-52
2020/12/14 07:58:28;;;;;;;13.43;8.90;;;7.60;93.90;;;;;;5015042;28;20060;-55
2020/12/14 08:01:16;;;;;;;16.73;8.80;;;7.60;94.00;;;;;;5005303;28;20053;-53
2020/12/14 08:03:42;;;;;;;14.80;7.85;;;7.70;93.90;;;;;;5018389;28;20045;-53
2020/12/14 08:06:16;;;;;;;12.20;7.97;;;7.70;94.00;;;;;;5019643;28;20064;-52
2020/12/14 08:08:46;;;;;;;10.05;7.38;;;7.70;93.80;;;;;;5015392;28;20041;-52
2020/12/14 08:11:13;;;;;;;13.90;7.93;;;7.80;93.80;;;;;;5012537;28;20128;-52
2020/12/14 08:13:39;;;;;;;13.02;7.50;;;7.80;93.80;;;;;;5005893;28;20141;-53
2020/12/14 08:16:06;;;;;;;14.40;7.50;;;7.80;93.90;;;;;;5020485;28;20506;-52
2020/12/14 08:18:34;;;;;;;11.90;7.80;;;7.80;93.80;;;;;;5012152;28;20041;-56
2020/12/14 08:21:25;;;;;;;11.73;7.80;;;7.80;93.90;;;;;;5008413;28;20144;-52
2020/12/14 08:24:11;;;;;;;13.73;7.85;;;7.80;93.90;;;;;;4996114;28;20133;-54
2020/12/14 08:26:59;;;;;;;10.23;7.13;;;7.80;93.90;;;;;;5005165;28;20045;-53
2020/12/14 08:30:05;;;;;;;12.85;8.07;;;7.90;93.90;;;;;;4999836;28;20039;-52
2020/12/14 08:33:12;;;;;;;11.32;7.55;;;7.90;93.90;;;;;;5006484;28;20041;-56
2020/12/14 08:35:58;;;;;;;12.63;7.15;;;7.90;94.00;;;;;;5003273;28;20048;-54
2020/12/14 08:38:27;;;;;;;11.95;8.05;;;7.90;94.10;;;;;;5020625;28;20037;-56
2020/12/14 08:41:01;;;;;;;11.38;7.43;;;7.90;94.00;;;;;;5002002;28;20045;-53
2020/12/14 08:43:28;;;;;;;11.40;7.75;;;8.00;93.90;;;;;;5017623;28;20509;-57
2020/12/14 08:46:00;;;;;;;12.05;7.82;;;8.00;93.90;;;;;;5016270;28;20124;-53
2020/12/14 08:48:26;;;;;;;11.35;8.20;;;8.00;93.90;;;;;;5010763;28;20487;-55
2020/12/14 08:51:08;;;;;;;10.98;8.80;;;8.10;93.80;;;;;;5012791;28;20121;-55
2020/12/14 08:54:09;;;;;;;10.60;7.93;;;8.10;93.80;;;;;;5001708;28;20077;-55
2020/12/14 08:56:54;;;;;;;12.73;8.65;;;8.10;93.90;;;;;;5009241;28;20068;-53
2020/12/14 08:59:23;;;;;;;13.30;9.05;;;8.10;93.80;;;;;;5016907;28;20045;-54
2020/12/14 09:01:56;;;;;;;12.48;9.00;;;8.10;94.00;;;;;;5016248;28;20107;-56
2020/12/14 09:04:42;;;;;;;13.38;9.73;;;8.10;94.00;;;;;;5005397;28;20049;-56
2020/12/14 09:07:07;;;;;;;12.50;8.73;;;8.10;94.00;;;;;;5016645;28;20410;-54
2020/12/14 09:09:38;;;;;;;13.25;8.50;;;8.10;94.00;;;;;;5014895;28;20038;-55
2020/12/14 09:12:12;;;;;;;12.77;8.77;;;8.10;94.00;;;;;;4994328;28;20121;-53
2020/12/14 09:14:38;;;;;;;14.48;9.43;;;8.10;93.90;;;;;;5012059;28;20040;-53
2020/12/14 09:17:13;;;;;;;15.35;9.68;;;8.20;94.00;;;;;;5016085;28;20473;-56
2020/12/14 09:20:00;;;;;;;13.70;9.90;;;8.10;94.00;;;;;;5000735;28;20061;-54
2020/12/14 09:22:45;;;;;;;11.43;9.35;;;8.20;94.00;;;;;;4995922;28;20046;-53
2020/12/14 09:25:11;;;;;;;14.90;10.00;;;8.20;94.10;;;;;;5012671;28;20057;-54
2020/12/14 09:27:37;;;;;;;12.18;9.10;;;8.30;94.10;;;;;;5015610;28;20096;-56
2020/12/14 09:30:03;;;;;;;17.02;10.18;;;8.20;94.10;;;;;;5016271;28;20096;-56
2020/12/14 09:32:29;;;;;;;14.02;9.05;;;8.20;94.10;;;;;;5019805;28;20030;-55
2020/12/14 09:34:54;;;;;;;12.90;9.38;;;8.30;94.20;;;;;;5014292;28;20120;-54
2020/12/14 09:37:20;;;;;;;16.45;10.35;;;8.20;94.30;;;;;;5018084;28;20730;-56
2020/12/14 09:39:46;;;;;;;12.95;9.60;;;8.30;94.30;;;;;;5017796;28;20120;-55
2020/12/14 09:42:31;;;;;;;12.63;9.20;;;8.30;94.10;;;;;;5003423;28;20038;-55
2020/12/14 09:45:17;;;;;;;12.40;8.93;;;8.30;94.20;;;;;;5000263;28;20037;-55
2020/12/14 09:47:44;;;;;;;14.05;9.60;;;8.40;94.00;;;;;;5015296;28;20044;-56
2020/12/14 09:50:30;;;;;;;11.63;9.35;;;8.40;94.10;;;;;;5007658;28;20049;-56
2020/12/14 09:52:55;;;;;;;15.13;9.27;;;8.40;94.20;;;;;;5018018;28;20038;-55
2020/12/14 09:55:21;;;;;;;12.63;9.75;;;8.40;94.20;;;;;;5029085;28;20047;-54
2020/12/14 09:57:46;;;;;;;12.98;9.43;;;8.40;94.30;;;;;;5017992;28;20045;-55
2020/12/14 10:00:12;;;;;;;14.48;9.23;;;8.40;94.30;;;;;;5025363;28;20475;-55
2020/12/14 10:02:38;;;;;;;12.52;9.52;;;8.50;94.30;;;;;;5023674;28;20152;-52
2020/12/14 10:05:04;;;;;;;12.15;8.77;;;8.50;94.30;;;;;;5019405;28;20050;-54
2020/12/14 10:07:30;;;;;;;11.40;8.48;;;8.60;94.40;;;;;;5020041;28;20104;-55
2020/12/14 10:09:56;;;;;;;15.32;9.70;;;8.60;94.40;;;;;;5003070;28;20041;-55
2020/12/14 10:12:25;;;;;;;13.32;9.65;;;8.60;94.30;;;;;;5019089;28;20034;-54
2020/12/14 10:15:12;;;;;;;13.40;9.13;;;8.60;94.40;;;;;;5008275;28;20134;-56
2020/12/14 10:17:37;;;;;;;13.32;9.70;;;8.70;94.40;;;;;;5022857;28;20065;-56
2020/12/14 10:20:05;;;;;;;15.25;10.20;;;8.70;94.50;;;;;;5025434;28;20654;-56
2020/12/14 10:22:31;;;;;;;11.93;9.40;;;8.70;94.40;;;;;;5019350;28;20041;-56
2020/12/14 10:24:56;;;;;;;13.93;9.77;;;8.80;94.40;;;;;;5018064;28;20033;-53
2020/12/14 10:27:42;;;;;;;12.73;10.20;;;8.80;94.40;;;;;;5006412;28;20132;-53
2020/12/14 10:30:08;;;;;;;14.20;9.93;;;8.90;94.40;;;;;;5022730;28;20110;-55
2020/12/14 10:32:33;;;;;;;11.70;9.88;;;8.90;94.30;;;;;;5024336;28;20043;-56
2020/12/14 10:35:19;;;;;;;13.43;9.55;;;8.90;94.40;;;;;;5006872;28;20041;-52
2020/12/14 10:38:05;;;;;;;12.90;9.85;;;9.00;94.40;;;;;;5005145;28;20052;-54
2020/12/14 10:40:30;;;;;;;13.02;9.90;;;9.00;94.40;;;;;;5022551;28;20042;-55
2020/12/14 10:42:56;;;;;;;12.23;9.60;;;9.10;94.50;;;;;;5012768;28;20084;-55
2020/12/14 10:45:23;;;;;;;13.23;9.57;;;9.10;94.40;;;;;;5023655;28;20057;-56
2020/12/14 10:47:49;;;;;;;14.40;9.88;;;9.10;94.40;;;;;;5022065;28;20410;-54
2020/12/14 10:50:38;;;;;;;12.68;8.85;;;9.10;94.40;;;;;;5001822;28;20045;-56
2020/12/14 10:53:24;;;;;;;13.57;9.95;;;9.20;94.50;;;;;;5007639;28;20049;-58
2020/12/14 10:56:09;;;;;;;13.48;10.38;;;9.20;94.40;;;;;;5006526;28;20103;-54
2020/12/14 10:58:35;;;;;;;11.80;9.55;;;9.20;94.40;;;;;;5017170;28;20045;-56
2020/12/14 11:01:00;;;;;;;11.30;8.85;;;9.20;94.40;;;;;;5017681;28;20045;-55
2020/12/14 11:03:26;;;;;;;13.43;10.02;;;9.30;94.40;;;;;;5015367;28;20133;-56
2020/12/14 11:05:53;;;;;;;14.15;10.02;;;9.30;94.40;;;;;;5018604;28;20042;-56
2020/12/14 11:08:21;;;;;;;11.43;9.75;;;9.30;94.40;;;;;;5008538;28;20132;-56
2020/12/14 11:11:07;;;;;;;14.88;9.63;;;9.30;94.40;;;;;;5003364;28;20045;-55
2020/12/14 11:13:33;;;;;;;10.70;8.95;;;9.30;94.30;;;;;;5000574;28;20096;-55
2020/12/14 11:15:59;;;;;;;11.07;9.95;;;9.40;94.20;;;;;;5024356;28;20046;-53
2020/12/14 11:18:25;;;;;;;11.55;9.48;;;9.40;94.10;;;;;;5015378;28;20041;-54
2020/12/14 11:20:51;;;;;;;11.98;9.75;;;9.50;94.20;;;;;;5022091;28;20064;-53
2020/12/14 11:23:16;;;;;;;12.60;10.00;;;9.40;94.30;;;;;;5025276;28;20056;-56
2020/12/14 11:26:04;;;;;;;13.48;9.77;;;9.50;94.30;;;;;;5006534;28;20064;-55
2020/12/14 11:28:50;;;;;;;12.57;9.93;;;9.50;94.10;;;;;;4999159;28;20135;-52
2020/12/14 11:31:19;;;;;;;11.05;9.52;;;9.50;94.30;;;;;;5022826;28;20065;-52
2020/12/14 11:33:45;;;;;;;17.95;11.25;;;9.50;94.30;;;;;;5011120;28;20042;-56
2020/12/14 11:36:11;;;;;;;13.20;9.65;;;9.60;94.20;;;;;;5024533;28;20042;-55
2020/12/14 11:38:37;;;;;;;12.52;10.23;;;9.60;94.20;;;;;;5026137;28;20552;-54
2020/12/14 11:41:03;;;;;;;12.30;9.85;;;9.60;94.20;;;;;;5013998;28;20049;-54
2020/12/14 11:43:28;;;;;;;13.45;10.05;;;9.60;94.20;;;;;;5012570;28;20533;-54
2020/12/14 11:45:54;;;;;;;13.55;10.27;;;9.60;94.20;;;;;;5015196;28;20133;-56
2020/12/14 11:48:20;;;;;;;11.70;9.13;;;9.70;94.20;;;;;;5019913;28;20054;-55
2020/12/14 11:50:45;;;;;;;12.07;9.77;;;9.70;94.20;;;;;;5022467;28;20466;-56
2020/12/14 11:53:11;;;;;;;13.85;9.65;;;9.80;94.10;;;;;;5017148;28;20091;-53
2020/12/14 11:55:38;;;;;;;11.70;10.45;;;9.90;94.00;;;;;;5024578;28;20037;-56
2020/12/14 11:58:24;;;;;;;15.00;11.90;;;9.80;94.00;;;;;;5007118;28;20049;-56
2020/12/14 12:00:51;;;;;;;14.80;11.48;;;9.80;93.90;;;;;;5012655;28;20088;-54
2020/12/14 12:03:17;;;;;;;13.55;9.95;;;9.80;94.00;;;;;;5027149;28;20099;-54
2020/12/14 12:05:42;;;;;;;13.13;9.55;;;9.90;94.00;;;;;;5027766;28;20049;-53
2020/12/14 12:08:28;;;;;;;12.75;10.88;;;9.90;93.90;;;;;;4999292;28;20045;-53
2020/12/14 12:11:13;;;;;;;16.40;14.32;;;9.90;94.00;;;;;;5014715;28;20052;-54
2020/12/14 12:13:59;;;;;;;13.07;9.65;;;9.90;94.00;;;;;;5007935;28;20487;-53
2020/12/14 12:16:25;;;;;;;20.65;17.60;;;9.90;94.00;;;;;;5024451;28;20038;-54
2020/12/14 12:18:50;;;;;;;25.65;23.13;;;9.90;94.10;;;;;;5020482;28;20038;-55
2020/12/14 12:21:16;;;;;;;13.05;11.25;;;9.90;94.10;;;;;;5025908;28;20037;-50
2020/12/14 12:23:43;;;;;;;26.38;21.63;;;9.90;94.00;;;;;;5019931;28;20105;-51
2020/12/14 12:26:29;;;;;;;13.13;11.73;;;9.90;93.90;;;;;;4998631;28;20564;-55
2020/12/14 12:29:15;;;;;;;25.17;20.27;;;9.90;93.90;;;;;;5001299;28;20135;-52
2020/12/14 12:31:41;;;;;;;12.10;10.13;;;10.00;93.90;;;;;;5027594;28;20402;-54
2020/12/14 12:34:07;;;;;;;16.73;12.98;;;10.00;93.90;;;;;;5013401;28;20049;-54
2020/12/14 12:36:32;;;;;;;14.98;12.32;;;10.00;93.80;;;;;;5026858;28;20053;-53
2020/12/14 12:38:58;;;;;;;11.57;9.27;;;10.00;93.80;;;;;;5020222;28;20080;-54
2020/12/14 12:41:24;;;;;;;11.63;8.98;;;10.00;93.70;;;;;;5015804;28;20038;-51
2020/12/14 12:44:09;;;;;;;11.77;9.30;;;10.00;94.00;;;;;;5007878;28;20049;-54
2020/12/14 12:46:55;;;;;;;12.55;9.43;;;10.10;93.90;;;;;;5006061;28;21193;-54
2020/12/14 12:49:40;;;;;;;10.55;8.38;;;10.10;93.70;;;;;;5003284;28;20526;-51
2020/12/14 12:52:06;;;;;;;12.25;8.65;;;10.10;93.80;;;;;;5018589;28;20142;-50
2020/12/14 12:54:32;;;;;;;10.00;8.43;;;10.10;93.70;;;;;;5015164;28;20125;-54
2020/12/14 12:57:05;;;;;;;12.75;9.02;;;10.10;93.60;;;;;;5013431;28;20108;-53
2020/12/14 12:59:30;;;;;;;9.77;8.52;;;10.20;93.70;;;;;;5018479;28;20502;-50
2020/12/14 13:02:16;;;;;;;12.98;10.15;;;10.20;93.60;;;;;;5009275;28;20056;-53
2020/12/14 13:04:42;;;;;;;11.43;8.77;;;10.20;93.60;;;;;;5019054;28;20045;-50
2020/12/14 13:07:08;;;;;;;11.63;9.20;;;10.20;93.70;;;;;;5024735;28;20084;-52
2020/12/14 13:09:54;;;;;;;12.20;9.50;;;10.20;93.50;;;;;;5011286;28;20045;-52
2020/12/14 13:12:22;;;;;;;11.35;9.05;;;10.20;93.50;;;;;;5028010;28;20493;-50
2020/12/14 13:14:49;;;;;;;10.88;9.00;;;10.20;93.50;;;;;;5024343;28;20398;-53
2020/12/14 13:17:35;;;;;;;12.38;8.15;;;10.20;93.40;;;;;;5007407;28;20037;-54